Americus, KS

3:32 AM CST on February 07, 2016 (GMT -0600)
Timmerman School Area | | Change Station
CLOSE
Current Station
Personal Weather Station
Location: Emporia, KS
Elevation: 1214 ft
Nearby Weather Stations

Elev 1214 ft 38.43 °N, 96.22 °W | Updated 10 seconds ago

Clear
Clear
40.5 °F
Feels Like 33 °F
N
13.6
Wind Variable Wind from SW
Gusts 15.0 mph

Today
High -- | Low -- °F
--% Chance of Precip.
Yesterday
High -- | Low -- °F
Precip. -- in
Pressure 30.04 in
Visibility 10.0 miles
Clouds Clear
Windchill 33 °F
Dew Point 5 °F
Humidity 22%
Rainfall 0.00 in
Snow Depth Not available.
7:25 AM 5:53 PM
Waning Crescent, 2% visible
METAR KEMP 070853Z AUTO 21021G26KT 10SM CLR 04/M04 A3002 RMK AO2 PK WND 21029/0833 SLP171 T00441039 56021
Pressure 30.04 in
Visibility 10.0 miles
Clouds Clear
Windchill 33 °F
Dew Point 5 °F
Humidity 22%
Rainfall 0.00 in
Snow Depth Not available.
7:25 AM 5:53 PM
Waning Crescent, 2% visible
METAR KEMP 070853Z AUTO 21021G26KT 10SM CLR 04/M04 A3002 RMK AO2 PK WND 21029/0833 SLP171 T00441039 56021

10-Day Weather Forecast

Almanac

Astronomy

Feb. 07, 2016 Rise Set
Actual Time
Civil Twilight
Nautical Twilight
Astronomical Twilight
Moon
Length of Visible Light
Length of Day
Tomorrow will be .
, % of the Moon is Illuminated

Today's Extremes

State Highs State Lows

Community

WunderPhotos

Upload Photos

1,891,171 photos uploaded!

WunderBlog® & News

Nearby

Air Quality

  Air Quality AQ Index Pollutant
Not available.

Snow Depth

Station Depth Elevation

Earthquake Activity

City Distance Mag. Time & Date
Minimum magnitude displayed is 2.5.

Coastal Water Temperatures

Place Temperature

Stations

Nearby Weather Stations

Station Location Temp. Windchill Dew Point Humidity Wind Precip. Elev Updated Type
                   

Watches & Warnings

There are currently no watches in effect.